Time;durP1;ratioP1;P1;durP2;ratioP2;P2;SDS_P1;SDS_P2;PMS_P1;PMS_P2;Temp;Humidity;BMP_temperature;BMP_pressure;BME280_temperature;BME280_humidity;BME280_pressure;Samples;Min_cycle;Max_cycle;Signal;HPM_P1;HPM_P2
2021/12/28 00:01:24;;;;;;;35.67;19.40;;;1.30;99.90;;;;;;5039479;28;20072;-72
2021/12/28 00:03:51;;;;;;;40.95;19.60;;;1.30;99.90;;;;;;5037996;28;20022;-72
2021/12/28 00:06:18;;;;;;;40.15;19.55;;;1.30;99.90;;;;;;5037708;28;20056;-72
2021/12/28 00:08:44;;;;;;;39.13;19.73;;;1.30;99.90;;;;;;5031794;28;20025;-71
2021/12/28 00:11:10;;;;;;;36.33;18.00;;;1.30;99.90;;;;;;5041437;28;20021;-71
2021/12/28 00:13:37;;;;;;;63.60;28.88;;;1.40;99.90;;;;;;5032856;28;20511;-71
2021/12/28 00:18:30;;;;;;;80.82;40.83;;;1.40;99.90;;;;;;5039660;28;20477;-71
2021/12/28 00:20:58;;;;;;;39.67;19.73;;;1.40;99.90;;;;;;5040709;28;20116;-72
2021/12/28 00:23:31;;;;;;;40.65;18.58;;;1.50;99.90;;;;;;5035411;28;20060;-72
2021/12/28 00:25:58;;;;;;;42.88;19.60;;;1.50;99.90;;;;;;5032553;28;20025;-71
2021/12/28 00:28:25;;;;;;;37.08;19.00;;;1.50;99.90;;;;;;5035057;28;20032;-71
2021/12/28 00:30:52;;;;;;;35.05;17.75;;;1.40;99.90;;;;;;5038939;28;20029;-71
2021/12/28 00:33:21;;;;;;;36.15;17.85;;;1.40;99.90;;;;;;5037000;28;20029;-71
2021/12/28 00:35:47;;;;;;;37.63;19.05;;;1.40;99.90;;;;;;5039162;28;20029;-72
2021/12/28 00:38:19;;;;;;;38.13;20.23;;;1.40;99.90;;;;;;5038560;28;20030;-71
2021/12/28 00:40:46;;;;;;;37.35;18.73;;;1.40;99.90;;;;;;5034076;28;20030;-72
2021/12/28 00:43:12;;;;;;;37.42;18.35;;;1.40;99.90;;;;;;5035606;28;20044;-71
2021/12/28 00:45:38;;;;;;;37.70;19.25;;;1.40;99.90;;;;;;5037141;28;20029;-72
2021/12/28 00:48:04;;;;;;;35.42;18.30;;;1.40;99.90;;;;;;5032114;28;20036;-72
2021/12/28 00:50:30;;;;;;;38.38;18.90;;;1.40;99.90;;;;;;5040728;28;20636;-72
2021/12/28 00:52:56;;;;;;;34.47;18.52;;;1.40;99.90;;;;;;5032667;28;20030;-71
2021/12/28 00:55:23;;;;;;;36.38;19.48;;;1.40;99.90;;;;;;5035689;28;20098;-71
2021/12/28 00:57:49;;;;;;;44.40;20.60;;;1.40;99.90;;;;;;5034188;28;20108;-72
2021/12/28 01:00:19;;;;;;;41.60;20.45;;;1.40;99.90;;;;;;5032854;28;20391;-71
2021/12/28 01:02:45;;;;;;;37.97;18.90;;;1.40;99.90;;;;;;5014328;28;20026;-72
2021/12/28 01:05:12;;;;;;;38.00;18.75;;;1.40;99.90;;;;;;5043764;28;20169;-71
2021/12/28 01:07:38;;;;;;;37.03;18.92;;;1.30;99.90;;;;;;5040843;28;20032;-71
2021/12/28 01:10:07;;;;;;;36.63;19.48;;;1.40;99.90;;;;;;5039703;28;20029;-71
2021/12/28 01:12:33;;;;;;;37.88;18.30;;;1.40;99.90;;;;;;5036759;28;20024;-72
2021/12/28 01:14:59;;;;;;;38.20;18.67;;;1.40;99.90;;;;;;5036517;28;20033;-72
2021/12/28 01:17:24;;;;;;;38.50;19.00;;;1.40;99.90;;;;;;5034161;28;20098;-72
2021/12/28 01:19:50;;;;;;;42.55;19.42;;;1.40;99.90;;;;;;5036361;28;20471;-71
2021/12/28 01:22:16;;;;;;;40.03;19.40;;;1.40;99.90;;;;;;5034500;28;20495;-71
2021/12/28 01:24:42;;;;;;;32.28;17.92;;;1.40;99.90;;;;;;5035021;28;20033;-72
2021/12/28 01:27:08;;;;;;;38.03;17.73;;;1.40;99.90;;;;;;5032279;28;20034;-72
2021/12/28 01:29:34;;;;;;;33.83;18.15;;;1.40;99.90;;;;;;5034922;28;20029;-71
2021/12/28 01:32:00;;;;;;;36.03;17.60;;;1.40;99.90;;;;;;5034225;28;20022;-74
2021/12/28 01:34:27;;;;;;;37.85;17.90;;;1.40;99.90;;;;;;5033162;28;20033;-71
2021/12/28 01:36:53;;;;;;;36.38;18.80;;;1.40;99.90;;;;;;5032000;28;20025;-71
2021/12/28 01:39:19;;;;;;;37.15;18.40;;;1.40;99.90;;;;;;5035826;28;20033;-71
2021/12/28 01:41:44;;;;;;;39.30;18.63;;;1.40;99.90;;;;;;5013793;28;20037;-71
2021/12/28 01:44:11;;;;;;;36.50;18.38;;;1.40;99.90;;;;;;5033411;28;20033;-74
2021/12/28 01:46:38;;;;;;;37.85;19.30;;;1.40;99.90;;;;;;5042606;28;20052;-71
2021/12/28 01:49:07;;;;;;;36.28;17.25;;;1.40;99.90;;;;;;5030862;28;20100;-76
2021/12/28 01:51:33;;;;;;;38.33;17.08;;;1.40;99.90;;;;;;5035544;28;20502;-71
2021/12/28 01:54:01;;;;;;;34.53;18.05;;;1.40;99.90;;;;;;5032458;28;20029;-71
2021/12/28 01:56:37;;;;;;;36.80;18.23;;;1.40;99.90;;;;;;5035349;28;20025;-71
2021/12/28 01:59:04;;;;;;;32.97;16.42;;;1.40;99.90;;;;;;5034567;28;20037;-71
2021/12/28 02:01:30;;;;;;;39.15;19.42;;;1.40;99.90;;;;;;5035862;28;20083;-71
2021/12/28 02:03:56;;;;;;;34.28;16.73;;;1.40;99.90;;;;;;5036763;28;20021;-71
2021/12/28 02:06:25;;;;;;;33.25;18.13;;;1.40;99.90;;;;;;5033969;28;20545;-72
2021/12/28 02:08:52;;;;;;;39.88;18.52;;;1.40;99.90;;;;;;5033679;28;20506;-72
2021/12/28 02:11:18;;;;;;;39.30;19.00;;;1.40;99.90;;;;;;5031204;28;20061;-72
2021/12/28 02:13:44;;;;;;;38.42;18.52;;;1.40;99.90;;;;;;5030845;28;20044;-71
2021/12/28 02:16:10;;;;;;;39.70;19.88;;;1.40;99.90;;;;;;5042282;28;20382;-72
2021/12/28 02:18:36;;;;;;;39.45;18.90;;;1.40;99.90;;;;;;5040782;28;20041;-72
2021/12/28 02:21:06;;;;;;;40.88;18.85;;;1.50;99.90;;;;;;5035145;28;20049;-72
2021/12/28 02:23:32;;;;;;;37.38;17.77;;;1.50;99.90;;;;;;5039667;28;20116;-72
2021/12/28 02:25:57;;;;;;;37.00;18.52;;;1.50;99.90;;;;;;5037510;28;20152;-72
2021/12/28 02:28:24;;;;;;;37.42;17.85;;;1.50;99.90;;;;;;5032964;28;20057;-72
2021/12/28 02:30:52;;;;;;;36.65;18.95;;;1.50;99.90;;;;;;5035435;28;20443;-72
2021/12/28 02:33:20;;;;;;;34.38;17.08;;;1.50;99.90;;;;;;5038991;28;20021;-71
2021/12/28 02:35:46;;;;;;;36.08;18.90;;;1.50;99.90;;;;;;5034370;28;20037;-72
2021/12/28 02:38:13;;;;;;;34.30;17.63;;;1.50;99.90;;;;;;5049426;28;20029;-72
2021/12/28 02:40:40;;;;;;;40.63;19.15;;;1.50;99.90;;;;;;5042009;28;20033;-72
2021/12/28 02:43:08;;;;;;;37.65;18.25;;;1.50;99.90;;;;;;5039546;28;20523;-71
2021/12/28 02:45:37;;;;;;;37.05;18.30;;;1.50;99.90;;;;;;5033807;28;20129;-71
2021/12/28 02:48:08;;;;;;;38.33;18.75;;;1.50;99.90;;;;;;5039534;28;20026;-72
2021/12/28 02:50:41;;;;;;;38.05;19.38;;;1.60;99.90;;;;;;5037794;28;20026;-71
2021/12/28 02:53:09;;;;;;;32.80;18.30;;;1.50;99.90;;;;;;5042664;28;20040;-71
2021/12/28 02:55:36;;;;;;;37.42;18.38;;;1.60;99.90;;;;;;5036463;28;20029;-71
2021/12/28 02:58:08;;;;;;;35.63;18.45;;;1.60;99.90;;;;;;5036412;28;20094;-72
2021/12/28 03:00:41;;;;;;;34.92;17.48;;;1.60;99.90;;;;;;5037142;28;20391;-72
2021/12/28 03:03:19;;;;;;;36.97;18.27;;;1.60;99.90;;;;;;5035651;28;20360;-72
2021/12/28 03:05:49;;;;;;;38.58;17.88;;;1.60;99.90;;;;;;5036424;28;20032;-71
2021/12/28 03:08:17;;;;;;;39.63;19.45;;;1.60;99.90;;;;;;5044896;28;20017;-72
2021/12/28 03:10:44;;;;;;;36.75;18.50;;;1.60;99.90;;;;;;5040595;28;20033;-72
2021/12/28 03:13:16;;;;;;;38.67;19.55;;;1.60;99.90;;;;;;5032197;28;20029;-72
2021/12/28 03:15:41;;;;;;;40.30;20.58;;;1.70;99.90;;;;;;5035890;28;20106;-72
2021/12/28 03:18:08;;;;;;;38.10;18.77;;;1.70;99.90;;;;;;5032471;28;20479;-72
2021/12/28 03:20:34;;;;;;;40.35;19.90;;;1.70;99.90;;;;;;5032784;28;20483;-72
2021/12/28 03:22:59;;;;;;;37.65;20.08;;;1.70;99.90;;;;;;5045197;28;20383;-72
2021/12/28 03:25:25;;;;;;;38.72;19.00;;;1.70;99.90;;;;;;5034499;28;20025;-72
2021/12/28 03:27:51;;;;;;;40.85;19.95;;;1.70;99.90;;;;;;5039259;28;20037;-72
2021/12/28 03:30:18;;;;;;;38.53;18.70;;;1.70;99.90;;;;;;5047561;28;20025;-72
2021/12/28 03:32:44;;;;;;;39.75;19.33;;;1.70;99.90;;;;;;5046837;28;20117;-72
2021/12/28 03:35:13;;;;;;;39.25;20.42;;;1.70;99.90;;;;;;5039412;28;20513;-72
2021/12/28 03:37:39;;;;;;;40.42;20.33;;;1.70;99.90;;;;;;5020584;28;20372;-72
2021/12/28 03:40:09;;;;;;;37.10;18.20;;;1.70;99.90;;;;;;5035487;28;20470;-72
2021/12/28 03:42:35;;;;;;;39.00;20.23;;;1.60;99.90;;;;;;5037837;28;20038;-71
2021/12/28 03:45:01;;;;;;;41.00;19.52;;;1.60;99.90;;;;;;5037202;28;20777;-72
2021/12/28 03:47:27;;;;;;;43.75;20.02;;;1.60;99.90;;;;;;5034716;28;20025;-72
2021/12/28 03:49:53;;;;;;;41.55;19.58;;;1.60;99.90;;;;;;5039065;28;20502;-72
2021/12/28 03:52:18;;;;;;;39.88;19.88;;;1.60;99.90;;;;;;5040997;28;20033;-72
2021/12/28 03:54:44;;;;;;;37.38;20.08;;;1.60;99.90;;;;;;5034609;28;20044;-72
2021/12/28 03:57:10;;;;;;;42.55;20.48;;;1.60;99.90;;;;;;5038012;28;20087;-72
2021/12/28 03:59:35;;;;;;;38.38;19.90;;;1.60;99.90;;;;;;5032256;28;20033;-72
2021/12/28 04:02:04;;;;;;;42.17;20.90;;;1.60;99.90;;;;;;5039438;28;20033;-72
2021/12/28 04:04:30;;;;;;;40.10;19.73;;;1.60;99.90;;;;;;5041588;28;20438;-72
2021/12/28 04:06:56;;;;;;;43.17;20.48;;;1.60;99.90;;;;;;5042097;28;20025;-72
2021/12/28 04:09:45;;;;;;;42.35;21.10;;;1.60;99.90;;;;;;5036593;28;20402;-71
2021/12/28 04:12:08;;;;;;;41.75;19.98;;;1.60;99.90;;;;;;5038747;28;20037;-72
2021/12/28 04:14:33;;;;;;;44.35;21.52;;;1.60;99.90;;;;;;5041136;28;20025;-71
2021/12/28 04:16:59;;;;;;;43.97;21.30;;;1.60;99.90;;;;;;5038246;28;21114;-72
2021/12/28 04:19:25;;;;;;;43.67;20.80;;;1.60;99.90;;;;;;5031966;28;20022;-71
2021/12/28 04:21:50;;;;;;;40.83;20.35;;;1.60;99.90;;;;;;5035051;28;20044;-72
2021/12/28 04:24:16;;;;;;;44.47;22.48;;;1.60;99.90;;;;;;5032087;28;20079;-72
2021/12/28 04:26:42;;;;;;;43.38;21.23;;;1.60;99.90;;;;;;5060890;23;20935;-91
2021/12/28 04:29:14;;;;;;;46.38;23.33;;;1.60;99.90;;;;;;5055272;28;20025;-91
2021/12/28 04:31:43;;;;;;;41.30;20.35;;;1.60;99.90;;;;;;5063304;28;20018;-91
2021/12/28 04:34:11;;;;;;;42.28;20.70;;;1.60;99.90;;;;;;5046027;28;20025;-91
2021/12/28 04:36:37;;;;;;;37.08;19.52;;;1.60;99.90;;;;;;5045766;28;20042;-91
2021/12/28 04:39:05;;;;;;;49.03;20.95;;;1.60;99.90;;;;;;5046388;28;20033;-92
2021/12/28 04:41:34;;;;;;;45.17;22.30;;;1.60;99.90;;;;;;5045753;28;20047;-91
2021/12/28 04:44:01;;;;;;;43.22;22.35;;;1.60;99.90;;;;;;5047536;28;20288;-91
2021/12/28 04:46:31;;;;;;;44.00;20.30;;;1.60;99.90;;;;;;5046020;28;20030;-91
2021/12/28 04:48:58;;;;;;;42.35;21.48;;;1.60;99.90;;;;;;5044844;28;20105;-91
2021/12/28 04:51:25;;;;;;;44.40;21.42;;;1.60;99.90;;;;;;5045127;28;20025;-91
2021/12/28 04:53:54;;;;;;;45.92;20.88;;;1.50;99.90;;;;;;5044633;28;20017;-91
2021/12/28 04:56:21;;;;;;;45.03;21.13;;;1.50;99.90;;;;;;5046380;28;20038;-92
2021/12/28 04:58:49;;;;;;;42.22;20.15;;;1.50;99.90;;;;;;5044778;28;20048;-91
2021/12/28 05:01:20;;;;;;;45.70;22.45;;;1.50;99.90;;;;;;5044757;28;20021;-91
2021/12/28 05:03:47;;;;;;;41.17;21.52;;;1.50;99.90;;;;;;5044319;28;20045;-91
2021/12/28 05:06:14;;;;;;;44.13;21.38;;;1.50;99.90;;;;;;5043532;28;20057;-92
2021/12/28 05:08:41;;;;;;;42.33;20.25;;;1.50;99.90;;;;;;5047898;23;20045;-72
2021/12/28 05:11:07;;;;;;;44.13;20.13;;;1.50;99.90;;;;;;5044390;28;20372;-72
2021/12/28 05:13:32;;;;;;;45.35;21.92;;;1.50;99.90;;;;;;5025608;28;20037;-72
2021/12/28 05:15:58;;;;;;;44.35;21.10;;;1.60;99.90;;;;;;5045620;28;20116;-72
2021/12/28 05:18:23;;;;;;;41.88;21.00;;;1.60;99.90;;;;;;5024357;28;20030;-72
2021/12/28 05:20:52;;;;;;;44.85;21.63;;;1.60;99.90;;;;;;5040627;23;20041;-91
2021/12/28 05:23:21;;;;;;;42.50;21.83;;;1.60;99.90;;;;;;5017494;28;20045;-91
2021/12/28 05:25:47;;;;;;;40.92;20.80;;;1.60;99.90;;;;;;5017151;28;20061;-90
2021/12/28 05:28:16;;;;;;;41.08;21.00;;;1.60;99.90;;;;;;5015635;28;20115;-91
2021/12/28 05:30:44;;;;;;;40.80;20.33;;;1.60;99.90;;;;;;5026045;28;20038;-90
2021/12/28 05:33:11;;;;;;;42.88;22.50;;;1.70;99.90;;;;;;5052207;28;20022;-90
2021/12/28 05:35:39;;;;;;;41.65;21.00;;;1.70;99.90;;;;;;5031617;28;20098;-90
2021/12/28 05:38:05;;;;;;;39.65;20.95;;;1.70;99.90;;;;;;5029598;28;20209;-90
2021/12/28 05:40:37;;;;;;;45.47;20.40;;;1.70;99.90;;;;;;5029643;28;20016;-91
2021/12/28 05:43:03;;;;;;;40.65;21.13;;;1.70;99.90;;;;;;5029897;28;20057;-90
2021/12/28 05:45:29;;;;;;;41.13;20.83;;;1.70;99.90;;;;;;5031624;28;20018;-91
2021/12/28 05:47:55;;;;;;;41.65;20.48;;;1.70;99.90;;;;;;5030814;28;20098;-91
2021/12/28 05:50:24;;;;;;;42.40;21.02;;;1.70;99.90;;;;;;5044493;28;20089;-91
2021/12/28 05:52:50;;;;;;;43.58;21.13;;;1.80;99.90;;;;;;5042853;23;20049;-72
2021/12/28 05:55:16;;;;;;;40.85;19.95;;;1.80;99.90;;;;;;5040707;28;20351;-71
2021/12/28 05:57:41;;;;;;;42.17;21.92;;;1.80;99.90;;;;;;5036457;28;20075;-72
2021/12/28 06:00:09;;;;;;;37.05;19.55;;;1.80;99.90;;;;;;5034915;28;20026;-72
2021/12/28 06:02:36;;;;;;;42.60;21.73;;;1.80;99.90;;;;;;5031216;28;20040;-71
2021/12/28 06:05:02;;;;;;;40.78;21.13;;;1.80;99.90;;;;;;5034746;28;20036;-72
2021/12/28 06:07:28;;;;;;;40.58;20.10;;;1.80;99.90;;;;;;5065586;22;20040;-72
2021/12/28 06:09:55;;;;;;;42.55;19.88;;;1.90;99.90;;;;;;5046271;28;20060;-72
2021/12/28 06:12:22;;;;;;;40.92;21.10;;;1.80;99.90;;;;;;5045556;28;20484;-72
2021/12/28 06:14:48;;;;;;;40.05;21.00;;;1.90;99.90;;;;;;5043757;28;20086;-72
2021/12/28 06:17:13;;;;;;;42.78;21.05;;;1.90;99.90;;;;;;5043906;28;20432;-72
2021/12/28 06:19:39;;;;;;;43.28;20.38;;;1.90;99.90;;;;;;5045274;28;20552;-72
2021/12/28 06:22:05;;;;;;;41.17;21.38;;;1.90;99.90;;;;;;5044523;28;20033;-72
2021/12/28 06:24:31;;;;;;;37.78;20.15;;;1.90;99.90;;;;;;5046398;28;20116;-72
2021/12/28 06:26:56;;;;;;;42.20;21.75;;;1.90;99.90;;;;;;5043176;28;20025;-72
2021/12/28 06:29:22;;;;;;;41.67;20.67;;;1.90;99.90;;;;;;5045705;28;20029;-73
2021/12/28 06:31:48;;;;;;;38.85;20.33;;;1.90;99.90;;;;;;5041674;28;20087;-73
2021/12/28 06:34:13;;;;;;;43.58;21.75;;;1.90;99.90;;;;;;5045472;28;20033;-72
2021/12/28 06:36:39;;;;;;;43.05;21.50;;;1.90;99.90;;;;;;5041314;28;20068;-72
2021/12/28 06:39:05;;;;;;;47.03;21.60;;;1.90;99.90;;;;;;5042496;28;20087;-73
2021/12/28 06:41:31;;;;;;;46.50;22.73;;;1.90;99.90;;;;;;5042252;28;20025;-72
2021/12/28 06:43:57;;;;;;;41.80;22.27;;;1.80;99.90;;;;;;5044525;28;20029;-73
2021/12/28 06:46:22;;;;;;;42.65;21.90;;;1.80;99.90;;;;;;5041171;28;20059;-73
2021/12/28 06:48:48;;;;;;;46.60;22.48;;;1.90;99.90;;;;;;5043493;28;20070;-72
2021/12/28 06:51:14;;;;;;;43.58;22.73;;;1.80;99.90;;;;;;5043100;28;20235;-72
2021/12/28 06:53:40;;;;;;;47.28;22.83;;;1.80;99.90;;;;;;5043810;28;20086;-72
2021/12/28 06:56:06;;;;;;;50.88;23.67;;;1.80;99.90;;;;;;5045331;28;20047;-72
2021/12/28 06:58:32;;;;;;;52.22;25.23;;;1.80;99.90;;;;;;5041561;28;20035;-72
2021/12/28 07:00:58;;;;;;;50.13;24.00;;;1.80;99.90;;;;;;5043204;28;20033;-72
2021/12/28 07:03:24;;;;;;;50.58;24.42;;;1.70;99.90;;;;;;5043147;28;20111;-72
2021/12/28 07:05:49;;;;;;;50.65;24.63;;;1.80;99.90;;;;;;5043231;28;20144;-73
2021/12/28 07:08:15;;;;;;;50.33;25.17;;;1.70;99.90;;;;;;5043421;28;20486;-72
2021/12/28 07:10:43;;;;;;;52.58;25.65;;;1.70;99.90;;;;;;5041174;28;20035;-73
2021/12/28 07:13:08;;;;;;;50.72;24.98;;;1.70;99.90;;;;;;5047552;28;20410;-73
2021/12/28 07:15:34;;;;;;;52.60;25.85;;;1.70;99.90;;;;;;5042881;28;20032;-72
2021/12/28 07:18:00;;;;;;;55.72;25.88;;;1.70;99.90;;;;;;5041447;28;20099;-73
2021/12/28 07:20:26;;;;;;;54.13;25.40;;;1.70;99.90;;;;;;5043999;28;20028;-72
2021/12/28 07:22:55;;;;;;;54.67;25.52;;;1.70;99.90;;;;;;5041755;28;20505;-73
2021/12/28 07:25:20;;;;;;;57.53;25.50;;;1.70;99.90;;;;;;5039968;28;20025;-73
2021/12/28 07:27:46;;;;;;;57.55;27.52;;;1.70;99.90;;;;;;5040333;28;20026;-73
2021/12/28 07:30:13;;;;;;;61.10;27.08;;;1.80;99.90;;;;;;5042658;28;20017;-73
2021/12/28 07:32:40;;;;;;;49.75;24.55;;;1.70;99.90;;;;;;5044666;28;20035;-73
2021/12/28 07:35:07;;;;;;;55.53;26.88;;;1.70;99.90;;;;;;5049584;28;20065;-72
2021/12/28 07:37:33;;;;;;;58.03;26.40;;;1.70;99.90;;;;;;5047444;28;20075;-72
2021/12/28 07:39:59;;;;;;;56.45;29.02;;;1.80;99.90;;;;;;5043183;28;20025;-73
2021/12/28 07:42:25;;;;;;;58.15;29.20;;;1.80;99.90;;;;;;5043779;28;20440;-73
2021/12/28 07:44:51;;;;;;;54.33;27.63;;;1.80;99.90;;;;;;5043694;28;20024;-73
2021/12/28 07:47:17;;;;;;;57.40;26.60;;;1.80;99.90;;;;;;5048501;28;20071;-73
2021/12/28 07:49:43;;;;;;;56.95;27.08;;;1.80;99.90;;;;;;5047622;28;20426;-72
2021/12/28 07:52:09;;;;;;;53.40;25.17;;;1.80;99.90;;;;;;5048254;28;20029;-72
2021/12/28 07:54:35;;;;;;;57.33;25.08;;;1.80;99.90;;;;;;5048262;28;20035;-73
2021/12/28 07:57:01;;;;;;;52.60;25.33;;;1.70;99.90;;;;;;5045578;28;20479;-73
2021/12/28 07:59:26;;;;;;;53.40;26.20;;;1.80;99.90;;;;;;5043891;28;20021;-73
2021/12/28 08:01:52;;;;;;;51.40;24.10;;;1.80;99.90;;;;;;5044821;28;20750;-73
2021/12/28 08:04:18;;;;;;;52.60;26.02;;;1.80;99.90;;;;;;5043969;28;20104;-73
2021/12/28 08:06:44;;;;;;;54.15;27.30;;;1.80;99.90;;;;;;5045610;28;20028;-73
2021/12/28 08:09:10;;;;;;;52.22;25.15;;;1.80;99.90;;;;;;5048302;28;20021;-73
2021/12/28 08:11:36;;;;;;;56.15;25.58;;;1.80;99.90;;;;;;5042929;28;20158;-73
2021/12/28 08:14:04;;;;;;;50.80;26.50;;;1.80;99.90;;;;;;5041333;28;20040;-74
2021/12/28 08:16:30;;;;;;;52.92;26.35;;;1.80;99.90;;;;;;5051570;28;20398;-75
2021/12/28 08:18:56;;;;;;;60.38;26.27;;;1.80;99.90;;;;;;5047848;28;20104;-75
2021/12/28 08:21:22;;;;;;;55.97;25.50;;;1.80;99.90;;;;;;5046548;28;20057;-76
2021/12/28 08:23:48;;;;;;;52.63;26.80;;;1.80;99.90;;;;;;5045574;28;20482;-73
2021/12/28 08:26:16;;;;;;;58.83;27.42;;;1.80;99.90;;;;;;5047859;28;20025;-74
2021/12/28 08:28:42;;;;;;;56.75;27.05;;;1.80;99.90;;;;;;5044471;28;20453;-76
2021/12/28 08:31:11;;;;;;;56.13;25.88;;;1.80;99.90;;;;;;5044691;28;20028;-73
2021/12/28 08:33:37;;;;;;;52.92;25.92;;;1.80;99.90;;;;;;5041275;28;20115;-77
2021/12/28 08:36:03;;;;;;;57.38;27.00;;;1.80;99.90;;;;;;5053031;28;20060;-76
2021/12/28 08:38:29;;;;;;;60.78;27.13;;;1.80;99.90;;;;;;5044240;28;20036;-74
2021/12/28 08:40:56;;;;;;;58.75;28.52;;;1.80;99.90;;;;;;5040941;28;20030;-73
2021/12/28 08:43:24;;;;;;;61.67;28.77;;;1.90;99.90;;;;;;5028085;28;20052;-73
2021/12/28 08:45:50;;;;;;;58.03;25.98;;;1.80;99.90;;;;;;5038696;28;20096;-73
2021/12/28 08:48:16;;;;;;;65.43;30.15;;;1.90;99.90;;;;;;5041198;28;20025;-73
2021/12/28 08:50:45;;;;;;;60.25;29.00;;;1.90;99.90;;;;;;5041428;28;20044;-73
2021/12/28 08:53:12;;;;;;;65.32;29.55;;;1.90;99.90;;;;;;5043152;28;20025;-73
2021/12/28 08:55:39;;;;;;;62.88;28.52;;;1.90;99.90;;;;;;5045375;28;20036;-73
2021/12/28 08:58:04;;;;;;;67.95;29.65;;;1.90;99.90;;;;;;5043231;28;20029;-72
2021/12/28 09:00:32;;;;;;;65.55;30.83;;;1.90;99.90;;;;;;5045461;28;20609;-73
2021/12/28 09:02:59;;;;;;;67.10;29.45;;;1.90;99.90;;;;;;5047759;28;20104;-73
2021/12/28 09:05:26;;;;;;;71.00;30.38;;;1.90;99.90;;;;;;5048082;28;20017;-73
2021/12/28 09:07:52;;;;;;;63.83;29.23;;;2.00;99.90;;;;;;5041022;28;20033;-76
2021/12/28 09:10:18;;;;;;;64.97;28.83;;;2.00;99.90;;;;;;5044939;28;20044;-74
2021/12/28 09:12:44;;;;;;;65.25;28.90;;;2.00;99.90;;;;;;5050854;28;20029;-72
2021/12/28 09:15:11;;;;;;;69.85;30.27;;;2.00;99.90;;;;;;5040678;28;20526;-72
2021/12/28 09:17:38;;;;;;;60.75;28.45;;;2.00;99.90;;;;;;5042881;28;20029;-72
2021/12/28 09:20:15;;;;;;;65.03;29.00;;;2.00;99.90;;;;;;5048637;28;20033;-72
2021/12/28 09:22:41;;;;;;;72.43;32.05;;;2.00;99.90;;;;;;5043843;28;20487;-72
2021/12/28 09:25:07;;;;;;;62.53;28.83;;;2.00;99.90;;;;;;5044164;28;20037;-72
2021/12/28 09:27:33;;;;;;;69.57;30.67;;;2.00;99.90;;;;;;5045226;28;20046;-71
2021/12/28 09:29:59;;;;;;;70.28;29.48;;;2.00;99.90;;;;;;5040215;28;20104;-71
2021/12/28 09:32:24;;;;;;;67.88;31.15;;;2.00;99.90;;;;;;5046174;28;20159;-71
2021/12/28 09:34:53;;;;;;;69.20;30.77;;;2.00;99.90;;;;;;5045076;28;20075;-73
2021/12/28 09:37:22;;;;;;;70.65;30.98;;;2.10;99.90;;;;;;5047881;28;20525;-74
2021/12/28 09:39:48;;;;;;;73.78;31.17;;;2.00;99.90;;;;;;5047421;28;20507;-72
2021/12/28 09:42:15;;;;;;;69.38;31.70;;;2.00;99.90;;;;;;5045828;28;20025;-74
2021/12/28 09:44:43;;;;;;;69.47;29.17;;;2.00;99.90;;;;;;5044336;28;20116;-72
2021/12/28 09:47:09;;;;;;;68.80;29.42;;;2.10;99.90;;;;;;5043602;28;20017;-74
2021/12/28 09:49:35;;;;;;;64.32;29.88;;;2.10;99.90;;;;;;5044703;28;20473;-72
2021/12/28 09:52:05;;;;;;;68.03;29.73;;;2.10;99.90;;;;;;5043597;28;20096;-72
2021/12/28 09:54:32;;;;;;;72.53;31.58;;;2.10;99.90;;;;;;5041290;28;20028;-73
2021/12/28 09:57:00;;;;;;;67.28;31.13;;;2.10;99.90;;;;;;5040493;28;20027;-74
2021/12/28 09:59:27;;;;;;;68.75;30.70;;;2.10;99.90;;;;;;5035481;28;20029;-73
2021/12/28 10:01:53;;;;;;;70.28;31.30;;;2.10;99.90;;;;;;5036781;28;20040;-74
2021/12/28 10:04:19;;;;;;;76.35;30.83;;;2.20;99.90;;;;;;5036958;28;20422;-73
2021/12/28 10:06:46;;;;;;;71.72;31.92;;;2.20;99.90;;;;;;5037258;28;20026;-74
2021/12/28 10:09:18;;;;;;;72.88;32.97;;;2.20;99.90;;;;;;5039667;28;20032;-74
2021/12/28 10:11:48;;;;;;;70.22;31.23;;;2.10;99.90;;;;;;5040985;28;20029;-74
2021/12/28 10:14:22;;;;;;;86.65;32.63;;;2.10;99.90;;;;;;5041957;28;20032;-75
2021/12/28 10:16:55;;;;;;;75.50;32.97;;;2.10;99.90;;;;;;5043807;28;20041;-75
2021/12/28 10:19:35;;;;;;;79.47;33.20;;;2.10;99.90;;;;;;5041254;28;20500;-73
2021/12/28 10:22:28;;;;;;;73.38;32.47;;;2.20;99.90;;;;;;5041835;28;20025;-73
2021/12/28 10:25:25;;;;;;;74.13;32.28;;;2.20;99.90;;;;;;5036132;28;20487;-72
2021/12/28 10:27:54;;;;;;;75.38;31.65;;;2.30;99.90;;;;;;5024141;28;20671;-73
2021/12/28 10:30:32;;;;;;;67.90;30.52;;;2.30;99.90;;;;;;5040024;28;20036;-74
2021/12/28 10:33:05;;;;;;;75.10;31.05;;;2.30;99.90;;;;;;5037500;28;20033;-74
2021/12/28 10:35:47;;;;;;;74.60;32.72;;;2.40;99.90;;;;;;5038345;28;20021;-71
2021/12/28 10:38:18;;;;;;;67.35;30.55;;;2.40;99.90;;;;;;5053581;28;20049;-71
2021/12/28 10:40:49;;;;;;;71.25;30.23;;;2.50;99.90;;;;;;5038911;28;20518;-71
2021/12/28 10:43:18;;;;;;;78.93;33.17;;;2.50;99.90;;;;;;5042661;28;20025;-71
2021/12/28 10:45:47;;;;;;;81.13;33.85;;;2.50;99.90;;;;;;5041338;28;20498;-70
2021/12/28 10:48:20;;;;;;;72.18;30.95;;;2.40;99.90;;;;;;5059985;28;20021;-71
2021/12/28 10:51:00;;;;;;;73.55;31.70;;;2.40;99.90;;;;;;5039770;28;20394;-71
2021/12/28 10:53:36;;;;;;;70.97;31.15;;;2.40;99.90;;;;;;5041470;28;20033;-71
2021/12/28 10:56:04;;;;;;;71.20;31.05;;;2.40;99.90;;;;;;5043267;28;20057;-70
2021/12/28 10:58:41;;;;;;;76.35;31.90;;;2.40;99.90;;;;;;5043090;28;20179;-71
2021/12/28 11:01:21;;;;;;;73.70;31.92;;;2.40;99.90;;;;;;5043835;28;20029;-71
2021/12/28 11:03:58;;;;;;;71.20;31.60;;;2.40;99.90;;;;;;5043523;28;20387;-72
2021/12/28 11:06:29;;;;;;;73.28;33.15;;;2.40;99.90;;;;;;5046441;28;20033;-71
2021/12/28 11:09:06;;;;;;;78.68;32.55;;;2.40;99.90;;;;;;5044044;28;20044;-71
2021/12/28 11:11:33;;;;;;;77.60;34.60;;;2.40;99.90;;;;;;5042520;28;20483;-71
2021/12/28 11:14:03;;;;;;;81.05;34.33;;;2.40;99.90;;;;;;5045249;28;20052;-71
2021/12/28 11:16:31;;;;;;;78.55;32.67;;;2.40;99.90;;;;;;5043703;28;20483;-71
2021/12/28 11:19:02;;;;;;;75.95;32.08;;;2.40;99.90;;;;;;5043108;28;20128;-71
2021/12/28 11:21:32;;;;;;;83.63;33.78;;;2.40;99.90;;;;;;5040611;28;20036;-71
2021/12/28 11:24:10;;;;;;;76.47;33.25;;;2.40;99.90;;;;;;5045350;28;20162;-71
2021/12/28 11:26:41;;;;;;;77.43;34.30;;;2.40;99.90;;;;;;5041430;28;20060;-71
2021/12/28 11:29:13;;;;;;;70.65;31.42;;;2.40;99.90;;;;;;5040547;28;20044;-70
2021/12/28 11:31:42;;;;;;;74.07;31.75;;;2.50;99.90;;;;;;5027417;28;20033;-70
2021/12/28 11:34:18;;;;;;;65.75;32.55;;;2.50;99.90;;;;;;5043925;28;20580;-70
2021/12/28 11:36:55;;;;;;;76.32;33.25;;;2.50;99.90;;;;;;5041213;28;20077;-70
2021/12/28 11:39:28;;;;;;;71.50;31.02;;;2.50;99.90;;;;;;5042661;28;20021;-70
2021/12/28 11:41:56;;;;;;;73.45;32.40;;;2.50;99.90;;;;;;5046448;28;20036;-70
2021/12/28 11:44:23;;;;;;;81.40;33.25;;;2.50;99.90;;;;;;5041604;28;20060;-70
2021/12/28 11:46:51;;;;;;;76.57;35.15;;;2.50;99.90;;;;;;5041584;28;20082;-70
2021/12/28 11:49:17;;;;;;;71.22;32.17;;;2.50;99.90;;;;;;5041711;28;20022;-69
2021/12/28 11:51:45;;;;;;;78.80;34.15;;;2.60;99.90;;;;;;5042271;28;20498;-70
2021/12/28 11:54:14;;;;;;;72.30;31.90;;;2.60;99.90;;;;;;5043927;28;20082;-71
2021/12/28 11:56:43;;;;;;;73.53;33.08;;;2.60;99.90;;;;;;5047067;28;20028;-70
2021/12/28 11:59:24;;;;;;;71.15;32.05;;;2.70;99.90;;;;;;5046873;28;20554;-70
2021/12/28 12:01:59;;;;;;;72.47;31.98;;;2.70;99.90;;;;;;5040107;28;20067;-70
2021/12/28 12:04:34;;;;;;;74.18;31.95;;;2.70;99.90;;;;;;5041687;28;20033;-70
2021/12/28 12:07:05;;;;;;;67.78;31.20;;;2.70;99.90;;;;;;5061187;22;20052;-71
2021/12/28 12:09:33;;;;;;;76.22;33.47;;;2.70;99.90;;;;;;5044013;28;20048;-73
2021/12/28 12:12:08;;;;;;;70.60;30.88;;;2.60;99.90;;;;;;5045367;28;20025;-72
2021/12/28 12:14:52;;;;;;;74.68;32.05;;;2.70;99.90;;;;;;5044255;28;20127;-72
2021/12/28 12:17:39;;;;;;;65.07;30.55;;;2.70;99.90;;;;;;5038595;28;20033;-72
2021/12/28 12:20:20;;;;;;;73.72;31.25;;;2.70;99.90;;;;;;5042687;28;20033;-72
2021/12/28 12:22:50;;;;;;;71.63;31.33;;;2.70;99.90;;;;;;5042583;28;20414;-72
2021/12/28 12:25:16;;;;;;;77.25;32.42;;;2.70;99.90;;;;;;5048533;28;20041;-73
2021/12/28 12:27:58;;;;;;;80.63;33.80;;;2.70;99.90;;;;;;5043667;28;20040;-72
2021/12/28 12:30:24;;;;;;;;;;;2.60;99.90;;;;;;5042863;28;20035;-73
2021/12/28 12:32:58;;;;;;;74.88;31.35;;;2.60;99.90;;;;;;5040448;28;20281;-72
2021/12/28 12:35:45;;;;;;;81.65;33.33;;;2.60;99.90;;;;;;5043310;28;20517;-72
2021/12/28 12:38:16;;;;;;;77.10;33.45;;;2.60;99.90;;;;;;5040096;28;20021;-72
2021/12/28 12:41:04;;;;;;;79.25;34.33;;;2.60;99.90;;;;;;5046457;28;20386;-72
2021/12/28 12:43:36;;;;;;;81.18;35.42;;;2.50;99.90;;;;;;5042000;28;20116;-71
2021/12/28 12:46:10;;;;;;;72.85;32.28;;;2.60;99.90;;;;;;5038961;28;20031;-72